Portada
METAR-TAF:

METAR-TAF

Aeroports :

Pyongyang, Corea del Nord

latitud: 39-02N, longitud: 125-47E, altitud: 36 m

METAR: manca

Hora: 00:35 (15:35 UTC)

Pronòstic

L'informe es va fer fa 10 hores i 55 minuts, a les 04:40 UTC
Pronòstic vàlid del 19 a les 06 UTC al 20 a les 06 UTC
Vent 8 kt del Oest
Visibilitat: 8000 m
Núvols disperses a una alçada de 2000 ft
Temporalment
l' 19 a les 21 UTC al 20 a les 01 UTC
Visibilitat: 0500 m
Cel ennuvolat a una alçada de 300 ft
boira

TAF: ZKPY 190440Z 1906/2006 27004MPS 8000 SCT020 TX20/1907Z TN08/1921Z TEMPO 1921/2001 0500 FG BKN003

Observacions i pronòstics meteorològics de més de 4000 aeroports (METAR i TAF).

Les estacions disponibles són els punts grocs i vermells al mapa.

Posi el ratolí al punt desitjat per veure el nom de l'estació.

Feu clic per veure les observacions i els pronòstics meteorològics.

Per canviar el mapa: feu clic els botons verds amb una creu de color negre per apropar; al botó verd amb un guió per allunyar la imatge; o en les fletxes verdes per a mapes adjacents.


METAR-TAF: